DTTJ METAR and TAF | Updated Today

DTTJ METAR

Djerba Zarzis International Airport

Observation time: 21 min. ago

DTTJ 200800Z 07011KT 040V100 9999 FEW020 24/16 Q1026 NOSIG

Need help? Read our tutorial on how to read METARs or read the parsed version below.

Djerba Zarzis International Airport (DTTJ) METAR

  • Weather conditions on Fri, 20 May 2022 08:00:00 +0000 (21 min. ago):
  • Present conditions: Dry
  • Clouds: A few at 610 meters
  • Visibility: Greater than 10 km
  • Wind: 70 degrees at 11 knots
  • Temperature: 24 celsius
  • Dew point: 16 celsius
  • Pressure: 1026 millibars
  • Remarks: None


Useful to know...

DTTJ TAF

Djerba Zarzis International Airport

TAF DTTJ 200500Z 2006/2106 09007KT 9999 FEW026
Observation time: 3:21 hr. ago
Need help? Read our tutorial on how to read TAFs or read the parsed version below.

Parsed version of TAF for Djerba Zarzis International Airport (DTTJ)

  • From 20 May at 06:00 UTC, to day 21 of the month at 06:00 UTC
  • Clouds: A few at 792 meters
  • Visibility: Greater than 10 km
  • Wind: 90 degrees at 7

Airports near DTTJ

No airports found within 100nm radius.